createdAt,value
2023-12-13T00:01:13.305Z,17.97
2023-12-13T00:03:41.317Z,18.05
2023-12-13T00:06:09.500Z,17.87
2023-12-13T00:08:37.388Z,17.85
2023-12-13T00:11:06.855Z,17.94
2023-12-13T00:13:35.095Z,17.89
2023-12-13T00:16:03.394Z,17.97
2023-12-13T00:18:31.552Z,17.97
2023-12-13T00:20:59.464Z,18.06
2023-12-13T00:23:27.389Z,18.03
2023-12-13T00:25:55.262Z,18.00
2023-12-13T00:28:27.199Z,18.13
2023-12-13T00:30:55.298Z,18.00
2023-12-13T00:33:23.382Z,18.11
2023-12-13T00:35:51.353Z,18.03
2023-12-13T00:38:19.206Z,18.06
2023-12-13T00:40:47.430Z,17.88
2023-12-13T00:43:15.378Z,18.01
2023-12-13T00:45:44.868Z,18.15
2023-12-13T00:48:12.860Z,18.07
2023-12-13T00:50:40.819Z,18.11
2023-12-13T00:53:09.012Z,18.11
2023-12-13T00:55:36.992Z,18.03
2023-12-13T00:58:04.945Z,18.11
2023-12-13T01:00:32.798Z,18.04
2023-12-13T01:03:02.060Z,18.10
2023-12-13T01:05:30.004Z,18.15
2023-12-13T01:07:58.066Z,18.20
2023-12-13T01:10:26.049Z,18.22
2023-12-13T01:12:54.222Z,18.24
2023-12-13T01:15:22.123Z,18.00
2023-12-13T01:17:50.141Z,18.09
2023-12-13T01:20:19.537Z,18.16
2023-12-13T01:22:47.544Z,18.01
2023-12-13T01:25:15.575Z,18.08
2023-12-13T01:27:44.020Z,18.33
2023-12-13T01:30:12.653Z,18.22
2023-12-13T01:32:40.690Z,18.25
2023-12-13T01:35:09.719Z,18.07
2023-12-13T01:37:38.975Z,18.27
2023-12-13T01:40:09.305Z,18.21
2023-12-13T01:42:39.281Z,18.15
2023-12-13T01:45:09.195Z,18.32
2023-12-13T01:47:37.381Z,18.13
2023-12-13T01:50:06.405Z,18.30
2023-12-13T01:55:03.999Z,18.28
2023-12-13T01:57:32.168Z,18.20
2023-12-13T02:00:00.242Z,18.23
2023-12-13T02:02:28.233Z,18.24
2023-12-13T02:04:56.988Z,18.18
2023-12-13T02:07:25.023Z,18.07
2023-12-13T02:09:52.923Z,18.32
2023-12-13T02:12:22.353Z,18.25
2023-12-13T02:14:50.246Z,18.17
2023-12-13T02:17:18.153Z,18.27
2023-12-13T02:19:46.037Z,18.23
2023-12-13T02:22:15.425Z,18.27
2023-12-13T02:24:46.388Z,18.36
2023-12-13T02:27:15.139Z,18.37
2023-12-13T02:29:43.538Z,18.30
2023-12-13T02:32:11.494Z,18.15
2023-12-13T02:34:39.444Z,18.13
2023-12-13T02:37:07.386Z,18.26
2023-12-13T02:39:37.051Z,18.23
2023-12-13T02:42:05.800Z,18.26
2023-12-13T02:44:33.678Z,18.28
2023-12-13T02:47:02.359Z,18.38
2023-12-13T02:49:30.496Z,18.33
2023-12-13T02:51:58.590Z,18.45
2023-12-13T02:54:26.485Z,18.34
2023-12-13T02:56:55.810Z,18.53
2023-12-13T02:59:23.752Z,18.34
2023-12-13T03:01:51.785Z,18.43
2023-12-13T03:04:19.745Z,18.43
2023-12-13T03:06:48.061Z,18.36
2023-12-13T03:09:16.215Z,18.25
2023-12-13T03:11:44.133Z,18.35
2023-12-13T03:14:13.460Z,18.34
2023-12-13T03:16:41.439Z,18.16
2023-12-13T03:19:09.555Z,18.34
2023-12-13T03:21:37.530Z,18.34
2023-12-13T03:24:05.751Z,18.25
2023-12-13T03:26:33.631Z,18.32
2023-12-13T03:29:01.646Z,18.26
2023-12-13T03:31:31.018Z,18.44
2023-12-13T03:33:58.971Z,18.38
2023-12-13T03:36:27.054Z,18.42
2023-12-13T03:41:22.897Z,18.29
2023-12-13T03:43:50.906Z,18.19
2023-12-13T03:46:18.985Z,18.41
2023-12-13T03:48:48.341Z,18.25
2023-12-13T03:51:16.247Z,18.25
2023-12-13T03:53:44.277Z,18.23
2023-12-13T03:56:12.449Z,18.30
2023-12-13T03:58:39.638Z,18.18
2023-12-13T04:01:09.583Z,18.28
2023-12-13T04:03:38.131Z,18.22
2023-12-13T04:06:08.499Z,18.33
2023-12-13T04:08:36.477Z,18.12
2023-12-13T04:11:04.522Z,18.23
2023-12-13T04:13:32.488Z,18.21
2023-12-13T04:16:00.374Z,18.25
2023-12-13T04:18:28.396Z,18.33
2023-12-13T04:20:56.412Z,18.25
2023-12-13T04:23:26.125Z,18.26
2023-12-13T04:25:54.066Z,18.42
2023-12-13T04:28:22.003Z,18.37
2023-12-13T04:30:50.619Z,18.18
2023-12-13T04:33:19.992Z,18.42
2023-12-13T04:35:48.473Z,18.45
2023-12-13T04:38:16.435Z,18.48
2023-12-13T04:40:45.829Z,18.57
2023-12-13T04:43:13.799Z,18.45
2023-12-13T04:45:41.725Z,18.21
2023-12-13T04:48:09.837Z,18.57
2023-12-13T04:50:37.896Z,18.53
2023-12-13T04:53:05.765Z,18.44
2023-12-13T04:55:34.544Z,18.61
2023-12-13T04:58:03.892Z,18.62
2023-12-13T05:00:31.793Z,18.52
2023-12-13T05:02:59.745Z,18.55
2023-12-13T05:05:27.625Z,18.44
2023-12-13T05:07:55.713Z,18.50
2023-12-13T05:10:23.640Z,18.45
2023-12-13T05:12:51.603Z,18.67
2023-12-13T05:15:20.886Z,18.37
2023-12-13T05:17:48.831Z,18.41
2023-12-13T05:20:16.966Z,18.33
2023-12-13T05:22:44.947Z,18.46
2023-12-13T05:25:12.879Z,18.42
2023-12-13T05:27:40.988Z,18.38
2023-12-13T05:30:09.670Z,18.31
2023-12-13T05:32:39.042Z,18.49
2023-12-13T05:35:07.424Z,18.33
2023-12-13T05:37:35.544Z,18.45
2023-12-13T05:40:05.112Z,18.53
2023-12-13T05:42:34.635Z,18.45
2023-12-13T05:45:02.760Z,18.44
2023-12-13T05:47:30.981Z,18.42
2023-12-13T05:50:00.315Z,18.45
2023-12-13T05:52:28.812Z,18.54
2023-12-13T05:54:56.710Z,18.43
2023-12-13T05:57:24.670Z,18.41
2023-12-13T05:59:52.538Z,18.20
2023-12-13T06:04:48.236Z,18.30
2023-12-13T06:07:17.639Z,18.37
2023-12-13T06:09:45.841Z,18.43
2023-12-13T06:12:14.547Z,18.68
2023-12-13T06:14:42.402Z,18.40
2023-12-13T06:17:10.311Z,18.40
2023-12-13T06:19:38.225Z,18.56
2023-12-13T06:22:08.218Z,18.43
2023-12-13T06:24:37.462Z,18.66
2023-12-13T06:27:05.996Z,18.47
2023-12-13T06:29:33.888Z,18.94
2023-12-13T06:32:02.001Z,19.25
2023-12-13T06:34:29.908Z,19.48
2023-12-13T06:36:57.835Z,21.48
2023-12-13T06:39:24.737Z,21.81
2023-12-13T06:41:54.094Z,21.40
2023-12-13T06:44:22.475Z,21.09
2023-12-13T06:46:51.539Z,20.86
2023-12-13T06:49:19.769Z,20.58
2023-12-13T06:51:47.933Z,20.53
2023-12-13T06:54:15.858Z,20.24
2023-12-13T06:56:43.789Z,20.19
2023-12-13T06:59:13.040Z,20.01
2023-12-13T07:01:41.461Z,20.31
2023-12-13T07:04:09.414Z,20.46
2023-12-13T07:06:37.352Z,20.76
2023-12-13T07:09:06.662Z,20.89
2023-12-13T07:11:34.564Z,20.87
2023-12-13T07:14:03.196Z,20.83
2023-12-13T07:16:32.618Z,20.46
2023-12-13T07:19:00.602Z,20.29
2023-12-13T07:21:28.541Z,20.15
2023-12-13T07:23:56.406Z,20.04
2023-12-13T07:26:26.828Z,19.94
2023-12-13T07:28:56.375Z,19.79
2023-12-13T07:33:53.901Z,19.47
2023-12-13T07:36:21.805Z,19.30
2023-12-13T07:38:49.759Z,19.25
2023-12-13T07:41:17.620Z,19.10
2023-12-13T07:43:46.356Z,19.07
2023-12-13T07:46:14.595Z,18.88
2023-12-13T07:48:43.690Z,18.87
2023-12-13T07:51:14.050Z,18.92
2023-12-13T07:53:43.404Z,18.78
2023-12-13T07:56:17.809Z,18.80
2023-12-13T07:58:52.035Z,18.78
2023-12-13T08:01:20.043Z,18.71
2023-12-13T08:03:48.068Z,18.54
2023-12-13T08:06:20.041Z,18.63
2023-12-13T08:08:48.492Z,18.24
2023-12-13T08:11:16.886Z,18.59
2023-12-13T08:13:45.167Z,18.30
2023-12-13T08:16:13.175Z,18.34
2023-12-13T08:18:41.384Z,18.22
2023-12-13T08:21:10.376Z,18.15
2023-12-13T08:23:40.617Z,18.02
2023-12-13T08:26:08.537Z,18.09
2023-12-13T08:28:37.165Z,18.00
2023-12-13T08:31:16.996Z,18.13
2023-12-13T08:33:49.390Z,17.91
2023-12-13T08:36:17.741Z,17.92
2023-12-13T08:38:47.117Z,17.86
2023-12-13T08:41:17.179Z,17.97
2023-12-13T08:43:45.131Z,17.88
2023-12-13T08:46:13.680Z,17.94
2023-12-13T08:48:42.013Z,17.81
2023-12-13T08:51:11.331Z,17.97
2023-12-13T08:56:10.800Z,17.65
2023-12-13T08:58:39.004Z,17.82
2023-12-13T09:01:07.676Z,17.79
2023-12-13T09:03:35.652Z,17.84
2023-12-13T09:06:03.790Z,17.90
2023-12-13T09:08:31.727Z,17.83
2023-12-13T09:10:59.639Z,17.85
2023-12-13T09:13:29.080Z,17.66
2023-12-13T09:15:57.014Z,17.74
2023-12-13T09:18:25.138Z,17.61
2023-12-13T09:20:53.097Z,17.67
2023-12-13T09:23:24.890Z,17.83
2023-12-13T09:25:53.790Z,17.84
2023-12-13T09:28:21.861Z,17.70
2023-12-13T09:30:51.207Z,17.72
2023-12-13T09:33:18.193Z,17.56
2023-12-13T09:35:46.213Z,17.66
2023-12-13T09:38:14.130Z,17.58
2023-12-13T09:40:42.159Z,17.54
2023-12-13T09:43:11.003Z,17.59
2023-12-13T09:45:41.476Z,17.43
2023-12-13T09:48:13.329Z,17.42
2023-12-13T09:50:43.222Z,17.42
2023-12-13T09:53:13.042Z,17.45
2023-12-13T09:55:41.948Z,17.42
2023-12-13T09:58:09.814Z,17.47
2023-12-13T10:00:37.730Z,17.25
2023-12-13T10:03:06.648Z,17.43
2023-12-13T10:05:40.791Z,17.49
2023-12-13T10:08:11.601Z,17.41
2023-12-13T10:10:39.526Z,17.33
2023-12-13T10:13:08.856Z,17.37
2023-12-13T10:15:35.744Z,17.29
2023-12-13T10:18:04.863Z,17.28
2023-12-13T10:20:35.245Z,17.35
2023-12-13T10:23:06.485Z,17.36
2023-12-13T10:25:34.735Z,17.40
2023-12-13T10:28:05.419Z,17.33
2023-12-13T10:30:34.318Z,17.44
2023-12-13T10:33:02.338Z,17.42
2023-12-13T10:35:30.235Z,17.39
2023-12-13T10:38:03.194Z,17.46
2023-12-13T10:40:32.537Z,17.52
2023-12-13T10:43:01.795Z,17.27
2023-12-13T10:45:29.692Z,17.33
2023-12-13T10:48:02.681Z,17.26
2023-12-13T10:50:31.863Z,17.33
2023-12-13T10:53:02.710Z,17.12
2023-12-13T10:55:32.495Z,17.34
2023-12-13T10:58:00.645Z,17.29
2023-12-13T11:00:29.426Z,17.17
2023-12-13T11:03:04.660Z,17.22
2023-12-13T11:05:32.829Z,17.32
2023-12-13T11:08:00.799Z,17.33
2023-12-13T11:10:28.772Z,17.20
2023-12-13T11:13:00.225Z,17.14
2023-12-13T11:15:30.120Z,16.98
2023-12-13T11:18:01.200Z,17.13
2023-12-13T11:20:29.509Z,17.11
2023-12-13T11:22:58.389Z,17.12
2023-12-13T11:25:37.212Z,17.16
2023-12-13T11:28:06.598Z,17.19
2023-12-13T11:30:34.932Z,17.31
2023-12-13T11:33:13.356Z,17.14
2023-12-13T11:35:41.760Z,17.14
2023-12-13T11:38:10.069Z,17.13
2023-12-13T11:40:38.333Z,17.15
2023-12-13T11:43:07.612Z,17.07
2023-12-13T11:45:35.533Z,17.15
2023-12-13T11:48:04.194Z,17.18
2023-12-13T11:50:32.203Z,17.08
2023-12-13T11:53:00.803Z,17.06
2023-12-13T11:55:28.765Z,17.02
2023-12-13T11:57:59.445Z,17.11
2023-12-13T12:00:29.974Z,16.96
2023-12-13T12:02:57.942Z,17.02
2023-12-13T12:05:26.264Z,17.10
2023-12-13T12:07:58.460Z,17.11
2023-12-13T12:10:26.651Z,17.05
2023-12-13T12:12:54.552Z,17.02
2023-12-13T12:15:23.170Z,17.00
2023-12-13T12:17:52.991Z,17.20
2023-12-13T12:20:21.247Z,17.20
2023-12-13T12:22:49.692Z,17.28
2023-12-13T12:25:18.815Z,17.18
2023-12-13T12:27:47.947Z,17.18
2023-12-13T12:30:17.772Z,17.13
2023-12-13T12:32:45.876Z,17.09
2023-12-13T12:35:15.266Z,17.31
2023-12-13T12:37:43.605Z,17.23
2023-12-13T12:40:11.640Z,17.39
2023-12-13T12:42:39.601Z,17.20
2023-12-13T12:45:08.712Z,17.15
2023-12-13T12:47:37.014Z,17.09
2023-12-13T12:50:05.908Z,17.17
2023-12-13T12:52:35.564Z,17.21
2023-12-13T12:55:05.257Z,17.18
2023-12-13T12:57:33.415Z,17.30
2023-12-13T13:00:01.403Z,17.25
2023-12-13T13:02:29.790Z,17.32
2023-12-13T13:04:57.808Z,17.19
2023-12-13T13:07:25.870Z,17.14
2023-12-13T13:09:55.335Z,17.14
2023-12-13T13:12:23.564Z,17.13
2023-12-13T13:14:51.589Z,17.18
2023-12-13T13:17:19.520Z,17.10
2023-12-13T13:19:47.404Z,17.11
2023-12-13T13:22:22.409Z,17.17
2023-12-13T13:24:53.407Z,17.21
2023-12-13T13:27:28.470Z,17.21
2023-12-13T13:29:57.893Z,17.08
2023-12-13T13:32:26.299Z,17.08
2023-12-13T13:34:54.579Z,17.12
2023-12-13T13:37:22.645Z,17.12
2023-12-13T13:39:50.613Z,17.16
2023-12-13T13:42:19.172Z,17.23
2023-12-13T13:44:48.481Z,17.22
2023-12-13T13:47:16.395Z,17.12
2023-12-13T13:49:44.502Z,17.11
2023-12-13T13:52:12.476Z,17.11
2023-12-13T13:54:40.876Z,17.20
2023-12-13T13:57:09.415Z,17.16
2023-12-13T13:59:37.691Z,17.23
2023-12-13T14:02:07.946Z,17.08
2023-12-13T14:04:36.116Z,17.17
2023-12-13T14:07:06.807Z,17.21
2023-12-13T14:09:35.089Z,17.29
2023-12-13T14:12:03.010Z,17.25
2023-12-13T14:14:30.882Z,17.27
2023-12-13T14:16:58.807Z,17.19
2023-12-13T14:19:28.222Z,17.24
2023-12-13T14:21:56.135Z,17.23
2023-12-13T14:24:24.211Z,17.08
2023-12-13T14:26:52.128Z,17.35
2023-12-13T14:29:21.178Z,17.23
2023-12-13T14:31:50.251Z,17.18
2023-12-13T14:34:21.017Z,17.15
2023-12-13T14:36:51.066Z,17.33
2023-12-13T14:39:19.735Z,17.30
2023-12-13T14:41:47.723Z,17.26
2023-12-13T14:44:15.909Z,17.25
2023-12-13T14:46:43.894Z,17.07
2023-12-13T14:49:12.391Z,17.34
2023-12-13T14:51:40.931Z,17.34
2023-12-13T14:54:10.302Z,17.21
2023-12-13T14:56:38.277Z,17.30
2023-12-13T14:59:06.444Z,17.17
2023-12-13T15:01:34.502Z,17.30
2023-12-13T15:04:03.626Z,17.24
2023-12-13T15:06:33.600Z,17.30
2023-12-13T15:09:01.558Z,17.42
2023-12-13T15:11:31.909Z,17.33
2023-12-13T15:13:59.893Z,17.46
2023-12-13T15:16:28.045Z,17.41
2023-12-13T15:18:56.025Z,17.47
2023-12-13T15:21:23.914Z,17.49
2023-12-13T15:23:52.076Z,17.31
2023-12-13T15:26:20.193Z,17.37
2023-12-13T15:28:49.658Z,17.40
2023-12-13T15:31:17.701Z,17.20
2023-12-13T15:33:46.290Z,17.29
2023-12-13T15:36:15.665Z,17.36
2023-12-13T15:38:43.611Z,17.22
2023-12-13T15:41:11.579Z,17.28
2023-12-13T15:43:39.530Z,17.37
2023-12-13T15:46:08.960Z,17.34
2023-12-13T15:48:36.871Z,17.21
2023-12-13T15:51:05.467Z,17.29
2023-12-13T15:53:33.932Z,17.42
2023-12-13T15:56:01.984Z,17.29
2023-12-13T15:58:30.299Z,17.29
2023-12-13T16:00:58.297Z,17.18
2023-12-13T16:03:27.589Z,17.21
2023-12-13T16:05:55.639Z,17.15
2023-12-13T16:08:23.688Z,17.34
2023-12-13T16:10:51.775Z,17.35
2023-12-13T16:13:19.702Z,17.36
2023-12-13T16:15:47.612Z,17.25
2023-12-13T16:18:15.703Z,17.33
2023-12-13T16:20:45.096Z,17.37
2023-12-13T16:23:13.085Z,17.32
2023-12-13T16:25:41.560Z,17.36
2023-12-13T16:28:09.544Z,17.32
2023-12-13T16:30:37.689Z,17.32
2023-12-13T16:33:05.670Z,17.31
2023-12-13T16:35:33.653Z,17.35
2023-12-13T16:38:03.061Z,17.20
2023-12-13T16:40:31.086Z,17.22
2023-12-13T16:43:00.686Z,17.21
2023-12-13T16:45:29.524Z,17.13
2023-12-13T16:47:58.063Z,17.25
2023-12-13T16:50:27.132Z,17.09
2023-12-13T16:52:55.133Z,17.12
2023-12-13T16:55:24.890Z,16.94
2023-12-13T16:57:52.831Z,17.16
2023-12-13T17:00:21.544Z,17.04
2023-12-13T17:02:49.539Z,17.06
2023-12-13T17:05:17.942Z,17.08
2023-12-13T17:07:46.208Z,17.00
2023-12-13T17:10:14.481Z,17.11
2023-12-13T17:12:43.809Z,16.99
2023-12-13T17:15:13.017Z,17.09
2023-12-13T17:17:41.097Z,17.01
2023-12-13T17:20:10.043Z,17.03
2023-12-13T17:22:38.306Z,16.97
2023-12-13T17:25:08.442Z,17.04
2023-12-13T17:27:36.795Z,17.13
2023-12-13T17:30:07.187Z,17.00
2023-12-13T17:32:35.387Z,17.01
2023-12-13T17:35:03.573Z,17.01
2023-12-13T17:37:31.499Z,16.97
2023-12-13T17:39:59.380Z,16.96
2023-12-13T17:42:29.754Z,16.86
2023-12-13T17:44:58.027Z,16.96
2023-12-13T17:47:27.459Z,16.87
2023-12-13T17:49:55.657Z,16.97
2023-12-13T17:52:23.782Z,16.90
2023-12-13T17:54:51.791Z,16.98
2023-12-13T17:57:19.752Z,16.87
2023-12-13T17:59:48.609Z,16.97
2023-12-13T18:02:20.290Z,16.77
2023-12-13T18:04:49.924Z,16.77
2023-12-13T18:07:17.866Z,16.93
2023-12-13T18:09:47.958Z,16.79
2023-12-13T18:12:15.913Z,16.73
2023-12-13T18:14:44.476Z,16.83
2023-12-13T18:17:13.262Z,16.83
2023-12-13T18:19:41.319Z,16.73
2023-12-13T18:22:10.593Z,16.75
2023-12-13T18:24:38.466Z,16.76
2023-12-13T18:27:06.773Z,16.73
2023-12-13T18:29:34.700Z,16.79
2023-12-13T18:32:03.836Z,16.70
2023-12-13T18:34:32.329Z,16.63
2023-12-13T18:37:00.622Z,16.77
2023-12-13T18:39:29.962Z,16.83
2023-12-13T18:41:57.461Z,16.83
2023-12-13T18:44:25.367Z,16.68
2023-12-13T18:46:55.565Z,16.75
2023-12-13T18:49:29.510Z,16.75
2023-12-13T18:51:57.746Z,16.75
2023-12-13T18:54:28.868Z,16.63
2023-12-13T18:56:58.233Z,16.70
2023-12-13T18:59:26.167Z,16.52
2023-12-13T19:01:54.381Z,16.54
2023-12-13T19:04:22.758Z,16.58
2023-12-13T19:06:52.395Z,16.64
2023-12-13T19:09:20.560Z,16.51
2023-12-13T19:11:48.695Z,16.44
2023-12-13T19:14:18.113Z,16.50
2023-12-13T19:16:48.267Z,16.51
2023-12-13T19:19:17.376Z,16.63
2023-12-13T19:21:46.859Z,16.69
2023-12-13T19:24:15.013Z,16.73
2023-12-13T19:26:42.972Z,16.77
2023-12-13T19:29:12.982Z,16.64
2023-12-13T19:31:42.342Z,16.76
2023-12-13T19:34:17.793Z,16.77
2023-12-13T19:36:50.664Z,16.91
2023-12-13T19:39:18.579Z,16.90
2023-12-13T19:41:46.447Z,17.08
2023-12-13T19:44:14.386Z,17.00
2023-12-13T19:46:43.722Z,17.04
2023-12-13T19:49:11.674Z,17.07
2023-12-13T19:51:39.616Z,16.91
2023-12-13T19:54:09.351Z,16.81
2023-12-13T19:56:37.351Z,16.68
2023-12-13T19:59:05.298Z,16.76
2023-12-13T20:01:33.358Z,16.62
2023-12-13T20:04:02.932Z,16.61
2023-12-13T20:06:30.884Z,16.53
2023-12-13T20:08:58.772Z,16.46
2023-12-13T20:11:26.735Z,16.42
2023-12-13T20:13:57.276Z,16.45
2023-12-13T20:16:26.408Z,16.29
2023-12-13T20:18:54.399Z,16.51
2023-12-13T20:21:23.714Z,16.70
2023-12-13T20:26:19.344Z,18.67
2023-12-13T20:28:47.317Z,20.16
2023-12-13T20:31:15.229Z,21.02
2023-12-13T20:33:43.145Z,22.28
2023-12-13T20:36:12.885Z,23.40
2023-12-13T20:38:42.291Z,23.28
2023-12-13T20:41:10.423Z,22.94
2023-12-13T20:43:38.413Z,22.62
2023-12-13T20:46:06.539Z,22.36
2023-12-13T20:48:34.513Z,22.08
2023-12-13T20:51:02.453Z,21.88
2023-12-13T20:53:30.409Z,21.86
2023-12-13T20:55:59.724Z,22.03
2023-12-13T20:58:27.973Z,22.44
2023-12-13T21:00:55.987Z,23.24
2023-12-13T21:03:23.982Z,24.40
2023-12-13T21:05:52.048Z,26.08
2023-12-13T21:08:20.001Z,28.01
2023-12-13T21:10:48.036Z,29.32
2023-12-13T21:13:17.297Z,30.61
2023-12-13T21:15:45.237Z,31.28
2023-12-13T21:18:13.363Z,31.86
2023-12-13T21:20:41.410Z,32.18
2023-12-13T21:23:10.561Z,31.44
2023-12-13T21:25:39.587Z,31.89
2023-12-13T21:28:07.514Z,31.68
2023-12-13T21:30:36.943Z,32.02
2023-12-13T21:33:05.052Z,32.05
2023-12-13T21:35:32.997Z,31.62
2023-12-13T21:38:00.916Z,31.92
2023-12-13T21:40:28.943Z,32.71
2023-12-13T21:42:56.836Z,32.88
2023-12-13T21:45:24.772Z,33.06
2023-12-13T21:47:54.046Z,33.86
2023-12-13T21:50:22.262Z,35.05
2023-12-13T21:52:50.169Z,34.89
2023-12-13T21:55:18.189Z,34.13
2023-12-13T21:57:46.078Z,33.16
2023-12-13T22:00:15.099Z,31.98
2023-12-13T22:02:43.042Z,30.56
2023-12-13T22:05:12.627Z,29.64
2023-12-13T22:07:40.615Z,28.98
2023-12-13T22:10:09.813Z,27.91
2023-12-13T22:12:37.712Z,27.13
2023-12-13T22:15:06.424Z,26.42
2023-12-13T22:17:38.034Z,25.88
2023-12-13T22:20:16.796Z,25.13
2023-12-13T22:22:47.111Z,24.63
2023-12-13T22:25:18.882Z,24.36
2023-12-13T22:27:46.929Z,23.76
2023-12-13T22:30:15.458Z,23.36
2023-12-13T22:32:43.779Z,22.94
2023-12-13T22:35:12.753Z,22.47
2023-12-13T22:37:41.049Z,22.53
2023-12-13T22:40:11.705Z,22.07
2023-12-13T22:42:39.732Z,22.06
2023-12-13T22:45:08.237Z,21.64
2023-12-13T22:47:36.150Z,21.47
2023-12-13T22:50:04.578Z,21.32
2023-12-13T22:52:33.169Z,21.07
2023-12-13T22:55:01.123Z,22.02
2023-12-13T22:57:30.387Z,22.71
2023-12-13T22:59:58.399Z,23.08
2023-12-13T23:02:27.797Z,23.28
2023-12-13T23:04:55.884Z,22.63
2023-12-13T23:07:24.131Z,22.45
2023-12-13T23:09:52.017Z,21.92
2023-12-13T23:12:19.957Z,21.88
2023-12-13T23:14:49.326Z,21.47
2023-12-13T23:17:17.331Z,21.30
2023-12-13T23:19:45.643Z,21.02
2023-12-13T23:22:13.789Z,20.80
2023-12-13T23:24:41.668Z,20.52
2023-12-13T23:27:09.641Z,20.58
2023-12-13T23:29:38.898Z,20.52
2023-12-13T23:32:08.761Z,20.40
2023-12-13T23:34:36.730Z,20.20
2023-12-13T23:37:04.980Z,20.22
2023-12-13T23:39:32.924Z,20.30
2023-12-13T23:42:00.825Z,19.93
2023-12-13T23:44:28.715Z,19.47
2023-12-13T23:46:58.709Z,19.59
2023-12-13T23:49:28.051Z,19.58
2023-12-13T23:51:55.939Z,19.28
2023-12-13T23:54:23.843Z,19.20
2023-12-13T23:56:51.721Z,19.13
2023-12-13T23:59:19.661Z,19.13
